sensor_id;sensor_type;location;lat;lon;timestamp;pressure;altitude;pressure_sealevel;temperature;humidity
69955;BME280;57279;55.912;37.490;2022-12-07T00:02:25;100405.00;;;-5.32;43.16
69955;BME280;57279;55.912;37.490;2022-12-07T00:04:51;100416.38;;;-5.32;43.25
69955;BME280;57279;55.912;37.490;2022-12-07T00:07:16;100410.03;;;-5.29;43.03
69955;BME280;57279;55.912;37.490;2022-12-07T00:09:42;100406.13;;;-5.35;43.07
69955;BME280;57279;55.912;37.490;2022-12-07T00:12:08;100398.22;;;-5.35;42.57
69955;BME280;57279;55.912;37.490;2022-12-07T00:14:33;100400.97;;;-5.36;42.91
69955;BME280;57279;55.912;37.490;2022-12-07T00:16:59;100400.16;;;-5.37;43.26
69955;BME280;57279;55.912;37.490;2022-12-07T00:19:25;100402.13;;;-5.29;43.03
69955;BME280;57279;55.912;37.490;2022-12-07T00:21:50;100403.69;;;-5.17;43.01
69955;BME280;57279;55.912;37.490;2022-12-07T00:24:16;100409.78;;;-5.16;42.78
69955;BME280;57279;55.912;37.490;2022-12-07T00:26:43;100405.75;;;-5.20;42.61
69955;BME280;57279;55.912;37.490;2022-12-07T00:29:16;100406.97;;;-5.24;42.68
69955;BME280;57279;55.912;37.490;2022-12-07T00:31:42;100397.56;;;-5.27;42.54
69955;BME280;57279;55.912;37.490;2022-12-07T00:34:13;100399.88;;;-5.34;42.75
69955;BME280;57279;55.912;37.490;2022-12-07T00:36:39;100401.66;;;-5.34;42.69
69955;BME280;57279;55.912;37.490;2022-12-07T00:39:05;100407.06;;;-5.36;43.13
69955;BME280;57279;55.912;37.490;2022-12-07T00:41:30;100399.75;;;-5.32;43.05
69955;BME280;57279;55.912;37.490;2022-12-07T00:43:56;100408.78;;;-5.25;43.18
69955;BME280;57279;55.912;37.490;2022-12-07T00:46:23;100415.13;;;-5.27;43.01
69955;BME280;57279;55.912;37.490;2022-12-07T00:48:49;100405.66;;;-5.40;42.74
69955;BME280;57279;55.912;37.490;2022-12-07T00:51:17;100409.16;;;-5.30;42.72
69955;BME280;57279;55.912;37.490;2022-12-07T00:53:43;100405.78;;;-5.41;43.10
69955;BME280;57279;55.912;37.490;2022-12-07T00:56:15;100403.09;;;-5.51;43.17
69955;BME280;57279;55.912;37.490;2022-12-07T00:58:42;100407.13;;;-5.47;43.29
69955;BME280;57279;55.912;37.490;2022-12-07T01:01:09;100407.13;;;-5.47;42.98
69955;BME280;57279;55.912;37.490;2022-12-07T01:03:35;100406.13;;;-5.56;43.28
69955;BME280;57279;55.912;37.490;2022-12-07T01:06:01;100402.56;;;-5.45;43.25
69955;BME280;57279;55.912;37.490;2022-12-07T01:08:28;100402.84;;;-5.48;43.09
69955;BME280;57279;55.912;37.490;2022-12-07T01:11:03;100400.47;;;-5.51;42.99
69955;BME280;57279;55.912;37.490;2022-12-07T01:13:29;100402.84;;;-5.48;43.25
69955;BME280;57279;55.912;37.490;2022-12-07T01:15:58;100400.72;;;-5.54;43.13
69955;BME280;57279;55.912;37.490;2022-12-07T01:18:29;100396.00;;;-5.60;43.47
69955;BME280;57279;55.912;37.490;2022-12-07T01:21:00;100401.69;;;-5.55;43.77
69955;BME280;57279;55.912;37.490;2022-12-07T01:23:27;100398.09;;;-5.54;43.11
69955;BME280;57279;55.912;37.490;2022-12-07T01:26:04;100396.00;;;-5.60;43.42
69955;BME280;57279;55.912;37.490;2022-12-07T01:28:31;100393.94;;;-5.57;43.56
69955;BME280;57279;55.912;37.490;2022-12-07T01:33:32;100396.97;;;-5.61;43.21
69955;BME280;57279;55.912;37.490;2022-12-07T01:36:08;100396.09;;;-5.62;43.15
69955;BME280;57279;55.912;37.490;2022-12-07T01:38:34;100390.56;;;-5.68;43.08
69955;BME280;57279;55.912;37.490;2022-12-07T01:41:01;100397.28;;;-5.55;43.41
69955;BME280;57279;55.912;37.490;2022-12-07T01:43:28;100391.88;;;-5.53;43.45
69955;BME280;57279;55.912;37.490;2022-12-07T01:45:55;100391.19;;;-5.55;43.14
69955;BME280;57279;55.912;37.490;2022-12-07T01:48:26;100385.22;;;-5.57;43.21
69955;BME280;57279;55.912;37.490;2022-12-07T01:50:56;100385.28;;;-5.68;43.17
69955;BME280;57279;55.912;37.490;2022-12-07T01:53:25;100387.63;;;-5.65;43.16
69955;BME280;57279;55.912;37.490;2022-12-07T01:55:53;100378.28;;;-5.79;43.02
69955;BME280;57279;55.912;37.490;2022-12-07T01:58:20;100379.69;;;-5.75;43.54
69955;BME280;57279;55.912;37.490;2022-12-07T02:00:46;100378.03;;;-5.76;43.45
69955;BME280;57279;55.912;37.490;2022-12-07T02:03:22;100376.47;;;-5.79;43.34
69955;BME280;57279;55.912;37.490;2022-12-07T02:05:50;100377.06;;;-5.75;43.39
69955;BME280;57279;55.912;37.490;2022-12-07T02:08:17;100367.66;;;-5.78;43.28
69955;BME280;57279;55.912;37.490;2022-12-07T02:10:43;100375.34;;;-5.86;43.30
69955;BME280;57279;55.912;37.490;2022-12-07T02:13:13;100378.94;;;-5.87;43.16
69955;BME280;57279;55.912;37.490;2022-12-07T02:21:38;100382.91;;;-5.72;43.04
69955;BME280;57279;55.912;37.490;2022-12-07T02:29:26;100376.06;;;-5.84;43.31
69955;BME280;57279;55.912;37.490;2022-12-07T02:32:07;100376.88;;;-5.83;43.30
69955;BME280;57279;55.912;37.490;2022-12-07T02:38:13;100367.66;;;-5.78;43.15
69955;BME280;57279;55.912;37.490;2022-12-07T02:40:46;100368.69;;;-5.69;43.24
69955;BME280;57279;55.912;37.490;2022-12-07T02:43:17;100362.50;;;-5.79;42.87
69955;BME280;57279;55.912;37.490;2022-12-07T02:45:44;100359.50;;;-5.75;44.17
69955;BME280;57279;55.912;37.490;2022-12-07T02:48:13;100363.66;;;-5.72;43.90
69955;BME280;57279;55.912;37.490;2022-12-07T02:50:45;100367.41;;;-5.75;43.43
69955;BME280;57279;55.912;37.490;2022-12-07T02:56:05;100362.38;;;-5.78;43.49
69955;BME280;57279;55.912;37.490;2022-12-07T02:58:42;100362.72;;;-5.71;43.39
69955;BME280;57279;55.912;37.490;2022-12-07T03:01:24;100361.69;;;-5.80;43.39
69955;BME280;57279;55.912;37.490;2022-12-07T03:06:53;100364.84;;;-5.86;43.61
69955;BME280;57279;55.912;37.490;2022-12-07T03:09:39;100359.81;;;-5.89;43.13
69955;BME280;57279;55.912;37.490;2022-12-07T03:12:12;100363.78;;;-5.74;43.52
69955;BME280;57279;55.912;37.490;2022-12-07T03:14:47;100365.88;;;-5.67;43.34
69955;BME280;57279;55.912;37.490;2022-12-07T03:17:24;100359.22;;;-5.72;43.49
69955;BME280;57279;55.912;37.490;2022-12-07T03:19:55;100368.84;;;-5.61;43.39
69955;BME280;57279;55.912;37.490;2022-12-07T03:22:23;100367.63;;;-5.57;43.46
69955;BME280;57279;55.912;37.490;2022-12-07T03:24:52;100371.41;;;-5.50;43.31
69955;BME280;57279;55.912;37.490;2022-12-07T03:27:28;100368.84;;;-5.61;43.81
69955;BME280;57279;55.912;37.490;2022-12-07T03:30:02;100360.44;;;-5.55;43.82
69955;BME280;57279;55.912;37.490;2022-12-07T03:35:05;100370.06;;;-5.65;44.69
69955;BME280;57279;55.912;37.490;2022-12-07T03:37:37;100374.19;;;-5.72;45.45
69955;BME280;57279;55.912;37.490;2022-12-07T03:42:32;100353.78;;;-5.80;45.02
69955;BME280;57279;55.912;37.490;2022-12-07T03:44:58;100355.72;;;-5.82;44.83
69955;BME280;57279;55.912;37.490;2022-12-07T03:50:07;100356.09;;;-5.86;45.37
69955;BME280;57279;55.912;37.490;2022-12-07T03:52:45;100358.06;;;-5.79;45.95
69955;BME280;57279;55.912;37.490;2022-12-07T03:55:40;100354.66;;;-5.70;45.90
69955;BME280;57279;55.912;37.490;2022-12-07T03:58:15;100344.78;;;-5.77;45.97
69955;BME280;57279;55.912;37.490;2022-12-07T04:00:43;100349.47;;;-5.81;46.54
69955;BME280;57279;55.912;37.490;2022-12-07T04:03:10;100352.75;;;-5.89;46.13
69955;BME280;57279;55.912;37.490;2022-12-07T04:05:35;100359.69;;;-5.97;46.68
69955;BME280;57279;55.912;37.490;2022-12-07T04:08:02;100351.72;;;-6.07;46.20
69955;BME280;57279;55.912;37.490;2022-12-07T04:10:27;100353.66;;;-6.09;46.98
69955;BME280;57279;55.912;37.490;2022-12-07T04:12:53;100349.78;;;-6.05;47.11
69955;BME280;57279;55.912;37.490;2022-12-07T04:15:19;100343.97;;;-6.08;46.72
69955;BME280;57279;55.912;37.490;2022-12-07T04:17:45;100356.75;;;-6.15;47.57
69955;BME280;57279;55.912;37.490;2022-12-07T04:20:11;100352.47;;;-6.16;47.60
69955;BME280;57279;55.912;37.490;2022-12-07T04:22:37;100346.72;;;-6.10;47.03
69955;BME280;57279;55.912;37.490;2022-12-07T04:25:02;100350.69;;;-6.16;47.72
69955;BME280;57279;55.912;37.490;2022-12-07T04:27:28;100352.47;;;-6.16;47.85
69955;BME280;57279;55.912;37.490;2022-12-07T04:29:54;100345.50;;;-6.06;48.88
69955;BME280;57279;55.912;37.490;2022-12-07T04:32:21;100343.97;;;-6.08;48.38
69955;BME280;57279;55.912;37.490;2022-12-07T04:34:46;100345.66;;;-6.19;48.61
69955;BME280;57279;55.912;37.490;2022-12-07T04:37:12;100339.47;;;-6.18;48.54
69955;BME280;57279;55.912;37.490;2022-12-07T04:39:38;100345.00;;;-6.32;48.14
69955;BME280;57279;55.912;37.490;2022-12-07T04:42:04;100336.56;;;-6.36;48.39
69955;BME280;57279;55.912;37.490;2022-12-07T04:44:30;100339.22;;;-6.36;49.10
69955;BME280;57279;55.912;37.490;2022-12-07T04:46:55;100338.75;;;-6.41;49.02
69955;BME280;57279;55.912;37.490;2022-12-07T04:49:22;100339.69;;;-6.42;48.93
69955;BME280;57279;55.912;37.490;2022-12-07T04:51:49;100335.06;;;-6.50;49.01
69955;BME280;57279;55.912;37.490;2022-12-07T04:54:15;100340.91;;;-6.46;49.40
69955;BME280;57279;55.912;37.490;2022-12-07T04:56:41;100345.84;;;-6.53;49.77
69955;BME280;57279;55.912;37.490;2022-12-07T04:59:08;100344.19;;;-6.65;49.79
69955;BME280;57279;55.912;37.490;2022-12-07T05:01:34;100346.97;;;-6.78;50.44
69955;BME280;57279;55.912;37.490;2022-12-07T05:04:00;100346.03;;;-6.77;50.50
69955;BME280;57279;55.912;37.490;2022-12-07T05:06:26;100338.66;;;-6.83;50.74
69955;BME280;57279;55.912;37.490;2022-12-07T05:08:52;100347.81;;;-6.66;50.72
69955;BME280;57279;55.912;37.490;2022-12-07T05:11:17;100341.59;;;-6.76;50.87
69955;BME280;57279;55.912;37.490;2022-12-07T05:14:04;100341.59;;;-6.76;51.98
69955;BME280;57279;55.912;37.490;2022-12-07T05:16:30;100345.75;;;-6.62;52.02
69955;BME280;57279;55.912;37.490;2022-12-07T05:18:56;100340.41;;;-6.72;51.60
69955;BME280;57279;55.912;37.490;2022-12-07T05:21:22;100340.81;;;-6.88;52.28
69955;BME280;57279;55.912;37.490;2022-12-07T05:23:48;100339.28;;;-6.91;52.50
69955;BME280;57279;55.912;37.490;2022-12-07T05:26:14;100340.09;;;-6.90;52.38
69955;BME280;57279;55.912;37.490;2022-12-07T05:28:39;100335.78;;;-6.91;52.60
69955;BME280;57279;55.912;37.490;2022-12-07T05:31:05;100343.09;;;-6.95;52.99
69955;BME280;57279;55.912;37.490;2022-12-07T05:33:31;100338.09;;;-6.98;53.05
69955;BME280;57279;55.912;37.490;2022-12-07T05:35:57;100341.81;;;-7.00;53.11
69955;BME280;57279;55.912;37.490;2022-12-07T05:38:23;100346.09;;;-6.99;53.05
69955;BME280;57279;55.912;37.490;2022-12-07T05:40:50;100340.13;;;-7.13;53.54
69955;BME280;57279;55.912;37.490;2022-12-07T05:43:16;100336.19;;;-7.07;53.59
69955;BME280;57279;55.912;37.490;2022-12-07T05:45:42;100339.78;;;-7.08;53.30
69955;BME280;57279;55.912;37.490;2022-12-07T05:48:07;100339.28;;;-7.02;53.53
69955;BME280;57279;55.912;37.490;2022-12-07T05:50:33;100331.13;;;-6.88;53.31
69955;BME280;57279;55.912;37.490;2022-12-07T05:53:01;100335.44;;;-6.86;53.24
69955;BME280;57279;55.912;37.490;2022-12-07T05:55:27;100329.66;;;-6.69;52.93
69955;BME280;57279;55.912;37.490;2022-12-07T05:57:52;100330.94;;;-6.63;52.99
69955;BME280;57279;55.912;37.490;2022-12-07T06:00:37;100327.03;;;-6.69;53.16
69955;BME280;57279;55.912;37.490;2022-12-07T06:03:02;100332.28;;;-6.69;53.42
69955;BME280;57279;55.912;37.490;2022-12-07T06:05:28;100331.09;;;-6.76;53.67
69955;BME280;57279;55.912;37.490;2022-12-07T06:07:54;100330.13;;;-6.64;53.53
69955;BME280;57279;55.912;37.490;2022-12-07T06:10:19;100327.38;;;-6.62;53.65
69955;BME280;57279;55.912;37.490;2022-12-07T06:12:45;100328.41;;;-6.54;53.85
69955;BME280;57279;55.912;37.490;2022-12-07T06:15:11;100323.88;;;-6.63;53.26
69955;BME280;57279;55.912;37.490;2022-12-07T06:17:39;100329.50;;;-6.56;53.87
69955;BME280;57279;55.912;37.490;2022-12-07T06:20:05;100328.41;;;-6.54;53.53
69955;BME280;57279;55.912;37.490;2022-12-07T06:22:31;100329.59;;;-6.58;53.89
69955;BME280;57279;55.912;37.490;2022-12-07T06:24:57;100326.16;;;-6.58;53.91
69955;BME280;57279;55.912;37.490;2022-12-07T06:27:22;100332.34;;;-6.59;54.15
69955;BME280;57279;55.912;37.490;2022-12-07T06:29:48;100334.28;;;-6.61;53.93
69955;BME280;57279;55.912;37.490;2022-12-07T06:32:14;100329.94;;;-6.51;54.53
69955;BME280;57279;55.912;37.490;2022-12-07T06:34:39;100329.72;;;-6.59;54.54
69955;BME280;57279;55.912;37.490;2022-12-07T06:37:05;100330.44;;;-6.57;55.51
69955;BME280;57279;55.912;37.490;2022-12-07T06:39:31;100328.44;;;-6.65;56.04
69955;BME280;57279;55.912;37.490;2022-12-07T06:41:57;100326.50;;;-6.63;55.86
69955;BME280;57279;55.912;37.490;2022-12-07T06:44:23;100326.06;;;-6.68;56.06
69955;BME280;57279;55.912;37.490;2022-12-07T06:46:49;100325.72;;;-6.75;56.37
69955;BME280;57279;55.912;37.490;2022-12-07T06:49:15;100326.13;;;-6.79;56.00
69955;BME280;57279;55.912;37.490;2022-12-07T06:51:41;100337.06;;;-6.74;56.30
69955;BME280;57279;55.912;37.490;2022-12-07T06:54:09;100330.41;;;-6.78;56.31
69955;BME280;57279;55.912;37.490;2022-12-07T06:56:35;100334.59;;;-6.76;56.10
69955;BME280;57279;55.912;37.490;2022-12-07T06:59:01;100328.47;;;-6.76;56.29
69955;BME280;57279;55.912;37.490;2022-12-07T07:01:27;100327.69;;;-6.88;56.73
69955;BME280;57279;55.912;37.490;2022-12-07T07:03:53;100330.22;;;-6.98;56.93
69955;BME280;57279;55.912;37.490;2022-12-07T07:06:19;100332.34;;;-6.92;57.30
69955;BME280;57279;55.912;37.490;2022-12-07T07:08:45;100332.22;;;-6.90;57.55
69955;BME280;57279;55.912;37.490;2022-12-07T07:11:10;100322.53;;;-6.90;57.39
69955;BME280;57279;55.912;37.490;2022-12-07T07:13:36;100327.69;;;-6.99;57.72
69955;BME280;57279;55.912;37.490;2022-12-07T07:16:02;100344.66;;;-7.03;58.49
69955;BME280;57279;55.912;37.490;2022-12-07T07:18:29;100329.16;;;-7.07;58.46
69955;BME280;57279;55.912;37.490;2022-12-07T07:20:54;100336.19;;;-7.07;58.22
69955;BME280;57279;55.912;37.490;2022-12-07T07:23:21;100332.25;;;-7.13;58.46
69955;BME280;57279;55.912;37.490;2022-12-07T07:25:47;100338.72;;;-7.17;58.85
69955;BME280;57279;55.912;37.490;2022-12-07T07:28:13;100333.81;;;-7.10;58.69
69955;BME280;57279;55.912;37.490;2022-12-07T07:30:39;100332.34;;;-7.03;58.21
69955;BME280;57279;55.912;37.490;2022-12-07T07:33:05;100332.13;;;-7.00;58.28
69955;BME280;57279;55.912;37.490;2022-12-07T07:35:33;100318.63;;;-6.95;58.52
69955;BME280;57279;55.912;37.490;2022-12-07T07:37:59;100313.84;;;-6.90;58.30
69955;BME280;57279;55.912;37.490;2022-12-07T07:40:26;100321.47;;;-6.87;57.56
69955;BME280;57279;55.912;37.490;2022-12-07T07:42:53;100310.81;;;-6.85;57.70
69955;BME280;57279;55.912;37.490;2022-12-07T07:45:20;100314.16;;;-6.83;57.71
69955;BME280;57279;55.912;37.490;2022-12-07T07:47:47;100316.31;;;-6.77;57.64
69955;BME280;57279;55.912;37.490;2022-12-07T07:50:13;100302.22;;;-6.76;57.68
69955;BME280;57279;55.912;37.490;2022-12-07T07:52:39;100316.63;;;-6.71;57.26
69955;BME280;57279;55.912;37.490;2022-12-07T07:55:05;100313.38;;;-6.63;57.09
69955;BME280;57279;55.912;37.490;2022-12-07T07:57:32;100312.16;;;-6.59;56.99
69955;BME280;57279;55.912;37.490;2022-12-07T07:59:58;100320.63;;;-6.55;56.95
69955;BME280;57279;55.912;37.490;2022-12-07T08:02:24;100316.09;;;-6.53;57.05
69955;BME280;57279;55.912;37.490;2022-12-07T08:04:49;100308.78;;;-6.50;56.93
69955;BME280;57279;55.912;37.490;2022-12-07T08:07:15;100304.56;;;-6.62;56.99
69955;BME280;57279;55.912;37.490;2022-12-07T08:09:41;100311.41;;;-6.50;57.34
69955;BME280;57279;55.912;37.490;2022-12-07T08:12:07;100310.34;;;-6.47;56.62
69955;BME280;57279;55.912;37.490;2022-12-07T08:14:33;100302.78;;;-6.40;56.57
69955;BME280;57279;55.912;37.490;2022-12-07T08:16:59;100307.50;;;-6.34;56.48
69955;BME280;57279;55.912;37.490;2022-12-07T08:19:25;100293.03;;;-6.29;56.15
69955;BME280;57279;55.912;37.490;2022-12-07T08:21:51;100300.78;;;-6.27;56.23
69955;BME280;57279;55.912;37.490;2022-12-07T08:24:17;100289.81;;;-6.32;55.90
69955;BME280;57279;55.912;37.490;2022-12-07T08:26:43;100303.34;;;-6.37;56.22
69955;BME280;57279;55.912;37.490;2022-12-07T08:29:08;100301.19;;;-6.32;56.29
69955;BME280;57279;55.912;37.490;2022-12-07T08:31:35;100295.34;;;-6.35;56.33
69955;BME280;57279;55.912;37.490;2022-12-07T08:34:00;100301.06;;;-6.30;56.34
69955;BME280;57279;55.912;37.490;2022-12-07T08:36:26;100298.34;;;-6.19;55.75
69955;BME280;57279;55.912;37.490;2022-12-07T08:38:52;100289.25;;;-6.15;55.53
69955;BME280;57279;55.912;37.490;2022-12-07T08:41:18;100294.19;;;-6.21;55.20
69955;BME280;57279;55.912;37.490;2022-12-07T08:43:44;100293.94;;;-6.18;55.20
69955;BME280;57279;55.912;37.490;2022-12-07T08:46:14;100290.28;;;-6.06;55.25
69955;BME280;57279;55.912;37.490;2022-12-07T08:48:50;100294.13;;;-6.10;55.15
69955;BME280;57279;55.912;37.490;2022-12-07T08:51:18;100289.00;;;-6.12;54.81
69955;BME280;57279;55.912;37.490;2022-12-07T08:53:44;100291.03;;;-6.15;55.36
69955;BME280;57279;55.912;37.490;2022-12-07T08:56:10;100281.44;;;-6.26;55.44
69955;BME280;57279;55.912;37.490;2022-12-07T08:58:37;100290.56;;;-6.30;55.72
69955;BME280;57279;55.912;37.490;2022-12-07T09:01:04;100272.28;;;-6.32;55.67
69955;BME280;57279;55.912;37.490;2022-12-07T09:03:30;100274.78;;;-6.30;55.57
69955;BME280;57279;55.912;37.490;2022-12-07T09:05:57;100270.47;;;-6.31;55.62
69955;BME280;57279;55.912;37.490;2022-12-07T09:08:29;100262.47;;;-6.30;55.63
69955;BME280;57279;55.912;37.490;2022-12-07T09:10:56;100268.59;;;-6.19;55.99
69955;BME280;57279;55.912;37.490;2022-12-07T09:13:22;100267.97;;;-6.33;55.89
69955;BME280;57279;55.912;37.490;2022-12-07T09:15:48;100263.00;;;-6.36;55.51
69955;BME280;57279;55.912;37.490;2022-12-07T09:18:14;100261.38;;;-6.27;55.97
69955;BME280;57279;55.912;37.490;2022-12-07T09:20:39;100263.69;;;-6.34;55.60
69955;BME280;57279;55.912;37.490;2022-12-07T09:23:06;100262.00;;;-6.35;56.17
69955;BME280;57279;55.912;37.490;2022-12-07T09:25:33;100261.69;;;-6.20;55.57
69955;BME280;57279;55.912;37.490;2022-12-07T09:27:59;100252.25;;;-6.23;55.22
69955;BME280;57279;55.912;37.490;2022-12-07T09:30:27;100253.16;;;-6.13;55.25
69955;BME280;57279;55.912;37.490;2022-12-07T09:32:54;100247.91;;;-6.13;54.99
69955;BME280;57279;55.912;37.490;2022-12-07T09:35:20;100247.22;;;-6.15;54.56
69955;BME280;57279;55.912;37.490;2022-12-07T09:37:46;100236.28;;;-6.10;54.85
69955;BME280;57279;55.912;37.490;2022-12-07T09:40:12;100243.88;;;-6.17;54.39
69955;BME280;57279;55.912;37.490;2022-12-07T09:42:42;100245.28;;;-6.13;54.23
69955;BME280;57279;55.912;37.490;2022-12-07T09:45:46;100236.28;;;-6.10;53.93
69955;BME280;57279;55.912;37.490;2022-12-07T09:48:21;100231.03;;;-6.10;53.86
69955;BME280;57279;55.912;37.490;2022-12-07T09:50:49;100236.00;;;-6.17;53.90
69955;BME280;57279;55.912;37.490;2022-12-07T09:53:23;100235.38;;;-5.99;53.89
69955;BME280;57279;55.912;37.490;2022-12-07T09:55:50;100235.38;;;-5.99;53.45
69955;BME280;57279;55.912;37.490;2022-12-07T09:58:34;100235.25;;;-5.88;53.46
69955;BME280;57279;55.912;37.490;2022-12-07T10:01:15;100226.41;;;-5.77;53.43
69955;BME280;57279;55.912;37.490;2022-12-07T10:03:58;100227.47;;;-5.59;53.29
69955;BME280;57279;55.912;37.490;2022-12-07T10:06:26;100225.53;;;-5.47;53.03
69955;BME280;57279;55.912;37.490;2022-12-07T10:08:51;100228.47;;;-5.50;52.84
69955;BME280;57279;55.912;37.490;2022-12-07T10:11:17;100220.59;;;-5.40;52.54
69955;BME280;57279;55.912;37.490;2022-12-07T10:13:52;100218.34;;;-5.45;52.52
69955;BME280;57279;55.912;37.490;2022-12-07T10:18:51;100216.00;;;-5.48;52.81
69955;BME280;57279;55.912;37.490;2022-12-07T10:21:22;100207.94;;;-5.46;52.49
69955;BME280;57279;55.912;37.490;2022-12-07T10:28:56;100203.81;;;-5.39;52.48
69955;BME280;57279;55.912;37.490;2022-12-07T10:31:24;100207.00;;;-5.45;51.88
69955;BME280;57279;55.912;37.490;2022-12-07T10:38:57;100196.13;;;-5.62;51.44
69955;BME280;57279;55.912;37.490;2022-12-07T10:41:24;100205.94;;;-5.74;52.17
69955;BME280;57279;55.912;37.490;2022-12-07T10:43:54;100193.47;;;-5.81;52.10
69955;BME280;57279;55.912;37.490;2022-12-07T10:52:19;100180.53;;;-6.04;53.05
69955;BME280;57279;55.912;37.490;2022-12-07T11:00:18;100182.84;;;-6.20;53.29
69955;BME280;57279;55.912;37.490;2022-12-07T11:03:29;100183.66;;;-6.20;52.85
69955;BME280;57279;55.912;37.490;2022-12-07T11:08:54;100165.56;;;-6.13;53.46
69955;BME280;57279;55.912;37.490;2022-12-07T11:14:29;100169.97;;;-6.14;53.08
69955;BME280;57279;55.912;37.490;2022-12-07T11:17:07;100173.72;;;-6.16;53.53
69955;BME280;57279;55.912;37.490;2022-12-07T11:22:23;100165.78;;;-6.26;53.24
69955;BME280;57279;55.912;37.490;2022-12-07T11:27:53;100164.25;;;-6.29;53.74
69955;BME280;57279;55.912;37.490;2022-12-07T11:33:22;100159.91;;;-6.08;53.05
69955;BME280;57279;55.912;37.490;2022-12-07T11:36:03;100150.22;;;-6.08;53.23
69955;BME280;57279;55.912;37.490;2022-12-07T11:38:40;100152.41;;;-6.13;53.08
69955;BME280;57279;55.912;37.490;2022-12-07T11:41:08;100144.34;;;-6.21;53.06
69955;BME280;57279;55.912;37.490;2022-12-07T11:44:07;100147.69;;;-6.19;52.98
69955;BME280;57279;55.912;37.490;2022-12-07T11:47:07;100144.59;;;-6.24;53.23
69955;BME280;57279;55.912;37.490;2022-12-07T11:52:04;100132.44;;;-6.25;53.20
69955;BME280;57279;55.912;37.490;2022-12-07T11:54:40;100136.91;;;-6.16;53.20
69955;BME280;57279;55.912;37.490;2022-12-07T11:57:15;100134.50;;;-6.29;53.09
69955;BME280;57279;55.912;37.490;2022-12-07T11:59:49;100125.34;;;-6.35;52.93
69955;BME280;57279;55.912;37.490;2022-12-07T12:02:20;100118.38;;;-6.45;53.21
69955;BME280;57279;55.912;37.490;2022-12-07T12:05:06;100122.25;;;-6.50;53.00
69955;BME280;57279;55.912;37.490;2022-12-07T12:07:39;100126.78;;;-6.52;52.64
69955;BME280;57279;55.912;37.490;2022-12-07T12:10:19;100111.63;;;-6.69;53.75
69955;BME280;57279;55.912;37.490;2022-12-07T12:13:16;100118.41;;;-6.66;53.70
69955;BME280;57279;55.912;37.490;2022-12-07T12:16:11;100113.75;;;-6.63;53.69
69955;BME280;57279;55.912;37.490;2022-12-07T12:18:58;100110.88;;;-6.60;54.16
69955;BME280;57279;55.912;37.490;2022-12-07T12:21:28;100116.16;;;-6.50;54.11
69955;BME280;57279;55.912;37.490;2022-12-07T12:23:58;100110.53;;;-6.66;54.09
69955;BME280;57279;55.912;37.490;2022-12-07T12:26:28;100110.28;;;-6.63;54.12
69955;BME280;57279;55.912;37.490;2022-12-07T12:28:56;100102.97;;;-6.60;53.89
69955;BME280;57279;55.912;37.490;2022-12-07T12:33:55;100106.56;;;-6.61;54.18
69955;BME280;57279;55.912;37.490;2022-12-07T12:51:54;100112.94;;;-6.84;54.29
69955;BME280;57279;55.912;37.490;2022-12-07T12:54:23;100103.22;;;-6.94;54.88
69955;BME280;57279;55.912;37.490;2022-12-07T13:02:30;100107.75;;;-6.96;55.37
69955;BME280;57279;55.912;37.490;2022-12-07T13:05:02;100113.78;;;-7.05;56.53
69955;BME280;57279;55.912;37.490;2022-12-07T13:12:57;100100.28;;;-7.00;56.21
69955;BME280;57279;55.912;37.490;2022-12-07T13:15:33;100105.31;;;-6.88;56.32
69955;BME280;57279;55.912;37.490;2022-12-07T13:18:02;100096.47;;;-6.86;55.92
69955;BME280;57279;55.912;37.490;2022-12-07T13:20:50;100095.44;;;-6.95;56.15
69955;BME280;57279;55.912;37.490;2022-12-07T13:23:22;100089.06;;;-7.02;56.19
69955;BME280;57279;55.912;37.490;2022-12-07T13:29:16;100094.50;;;-7.15;56.65
69955;BME280;57279;55.912;37.490;2022-12-07T13:34:33;100085.00;;;-7.28;58.03
69955;BME280;57279;55.912;37.490;2022-12-07T13:37:10;100094.16;;;-7.22;57.87
69955;BME280;57279;55.912;37.490;2022-12-07T13:39:52;100089.19;;;-7.46;58.24
69955;BME280;57279;55.912;37.490;2022-12-07T13:42:29;100092.25;;;-7.73;58.70
69955;BME280;57279;55.912;37.490;2022-12-07T13:44:56;100085.34;;;-7.74;59.27
69955;BME280;57279;55.912;37.490;2022-12-07T13:49:53;100080.41;;;-8.00;59.54
69955;BME280;57279;55.912;37.490;2022-12-07T13:52:25;100096.63;;;-8.06;60.24
69955;BME280;57279;55.912;37.490;2022-12-07T13:57:30;100081.97;;;-8.09;60.70
69955;BME280;57279;55.912;37.490;2022-12-07T13:59:57;100082.31;;;-8.13;61.29
69955;BME280;57279;55.912;37.490;2022-12-07T14:02:29;100075.56;;;-8.16;60.75
69955;BME280;57279;55.912;37.490;2022-12-07T14:05:15;100084.97;;;-8.25;60.71
69955;BME280;57279;55.912;37.490;2022-12-07T14:13:02;100082.81;;;-8.19;61.20
69955;BME280;57279;55.912;37.490;2022-12-07T14:15:31;100085.56;;;-8.21;61.23
69955;BME280;57279;55.912;37.490;2022-12-07T14:17:58;100080.19;;;-8.19;60.70
69955;BME280;57279;55.912;37.490;2022-12-07T14:20:39;100078.41;;;-8.30;61.62
69955;BME280;57279;55.912;37.490;2022-12-07T14:23:22;100073.06;;;-8.29;61.38
69955;BME280;57279;55.912;37.490;2022-12-07T14:25:51;100073.44;;;-8.33;60.97
69955;BME280;57279;55.912;37.490;2022-12-07T14:28:32;100071.75;;;-8.34;61.32
69955;BME280;57279;55.912;37.490;2022-12-07T14:30:59;100076.81;;;-8.42;61.08
69955;BME280;57279;55.912;37.490;2022-12-07T14:33:25;100069.13;;;-8.34;61.32
69955;BME280;57279;55.912;37.490;2022-12-07T14:35:51;100071.66;;;-8.33;61.38
69955;BME280;57279;55.912;37.490;2022-12-07T14:38:24;100073.78;;;-8.27;60.91
69955;BME280;57279;55.912;37.490;2022-12-07T14:40:51;100074.03;;;-8.30;61.33
69955;BME280;57279;55.912;37.490;2022-12-07T14:43:18;100063.56;;;-8.30;61.44
69955;BME280;57279;55.912;37.490;2022-12-07T14:45:45;100060.78;;;-8.28;61.44
69955;BME280;57279;55.912;37.490;2022-12-07T14:48:13;100067.22;;;-8.21;61.49
69955;BME280;57279;55.912;37.490;2022-12-07T14:50:43;100066.00;;;-8.17;61.42